createdAt,value
2017-08-05T00:00:02.492Z,20.4
2017-08-05T00:00:23.136Z,20.3
2017-08-05T00:00:43.775Z,20.4
2017-08-05T00:01:04.429Z,20.4
2017-08-05T00:01:25.072Z,20.4
2017-08-05T00:01:45.704Z,20.4
2017-08-05T00:02:06.346Z,20.4
2017-08-05T00:02:26.984Z,20.4
2017-08-05T00:02:47.672Z,20.4
2017-08-05T00:03:08.360Z,20.4
2017-08-05T00:03:29.008Z,20.5
2017-08-05T00:03:49.672Z,20.5
2017-08-05T00:04:10.317Z,20.4
2017-08-05T00:04:30.976Z,20.4
2017-08-05T00:04:51.615Z,20.4
2017-08-05T00:05:12.252Z,20.4
2017-08-05T00:05:32.906Z,20.4
2017-08-05T00:05:53.534Z,20.4
2017-08-05T00:06:14.202Z,20.3
2017-08-05T00:06:34.851Z,20.5
2017-08-05T00:06:55.512Z,20.5
2017-08-05T00:07:16.235Z,20.4
2017-08-05T00:07:36.879Z,20.4
2017-08-05T00:07:57.646Z,20.4
2017-08-05T00:08:18.308Z,20.4
2017-08-05T00:08:38.944Z,20.3
2017-08-05T00:08:59.608Z,20.3
2017-08-05T00:09:20.273Z,20.4
2017-08-05T00:09:40.936Z,20.3
2017-08-05T00:10:01.574Z,20.4
2017-08-05T00:10:22.245Z,20.5
2017-08-05T00:10:42.900Z,20.4
2017-08-05T00:11:03.563Z,20.5
2017-08-05T00:11:24.221Z,20.5
2017-08-05T00:11:44.883Z,20.5
2017-08-05T00:12:05.535Z,20.4
2017-08-05T00:12:26.197Z,20.4
2017-08-05T00:12:46.834Z,20.4
2017-08-05T00:13:07.485Z,20.4
2017-08-05T00:13:28.173Z,20.4
2017-08-05T00:13:48.831Z,20.5
2017-08-05T00:14:09.460Z,20.4
2017-08-05T00:14:30.111Z,20.4
2017-08-05T00:14:50.758Z,20.4
2017-08-05T00:15:11.410Z,20.3
2017-08-05T00:15:32.062Z,20.4
2017-08-05T00:15:52.717Z,20.4
2017-08-05T00:16:13.343Z,20.4
2017-08-05T00:16:33.990Z,20.4
2017-08-05T00:16:54.640Z,20.4
2017-08-05T00:17:15.297Z,20.4
2017-08-05T00:17:35.970Z,20.3
2017-08-05T00:17:56.626Z,20.4
2017-08-05T00:18:17.322Z,20.4
2017-08-05T00:18:37.955Z,20.4
2017-08-05T00:18:58.641Z,20.4
2017-08-05T00:19:19.291Z,20.4
2017-08-05T00:19:39.942Z,20.4
2017-08-05T00:20:00.616Z,20.4
2017-08-05T00:20:21.263Z,20.4
2017-08-05T00:20:41.896Z,20.4
2017-08-05T00:21:02.529Z,20.4
2017-08-05T00:21:23.162Z,20.4
2017-08-05T00:21:43.798Z,20.4
2017-08-05T00:22:04.452Z,20.4
2017-08-05T00:22:25.119Z,20.2
2017-08-05T00:22:45.793Z,20.4
2017-08-05T00:23:06.459Z,20.4
2017-08-05T00:23:27.124Z,20.3
2017-08-05T00:23:47.759Z,20.4
2017-08-05T00:24:08.428Z,20.3
2017-08-05T00:24:29.124Z,20.3
2017-08-05T00:24:49.757Z,20.4
2017-08-05T00:25:10.425Z,20.2
2017-08-05T00:25:31.069Z,20.2
2017-08-05T00:25:51.751Z,20.3
2017-08-05T00:26:12.393Z,20.3
2017-08-05T00:26:33.047Z,20.2
2017-08-05T00:26:53.699Z,20.2
2017-08-05T00:27:14.360Z,20.2
2017-08-05T00:27:35.049Z,20.3
2017-08-05T00:27:55.704Z,20.2
2017-08-05T00:28:16.398Z,20.3
2017-08-05T00:28:37.031Z,20.2
2017-08-05T00:28:57.686Z,20.2
2017-08-05T00:29:18.337Z,20.2
2017-08-05T00:29:38.980Z,20.2
2017-08-05T00:29:59.654Z,20.2
2017-08-05T00:30:20.290Z,20.3
2017-08-05T00:30:40.932Z,20.2
2017-08-05T00:31:01.595Z,20.2
2017-08-05T00:31:22.250Z,20.3
2017-08-05T00:31:42.883Z,20.2
2017-08-05T00:32:03.534Z,20.2
2017-08-05T00:32:24.186Z,20.2
2017-08-05T00:32:44.819Z,20.3
2017-08-05T00:33:05.466Z,20.3
2017-08-05T00:33:26.134Z,20.3
2017-08-05T00:33:46.770Z,20.2
2017-08-05T00:34:07.428Z,20.2
2017-08-05T00:34:28.076Z,20.1
2017-08-05T00:34:48.717Z,20.2
2017-08-05T00:35:09.360Z,20.3
2017-08-05T00:35:30.020Z,20.2
2017-08-05T00:35:50.667Z,20.1
2017-08-05T00:36:11.313Z,20.2
2017-08-05T00:36:31.960Z,20.1
2017-08-05T00:36:52.599Z,20.2
2017-08-05T00:37:13.227Z,20.2
2017-08-05T00:37:33.878Z,20.1
2017-08-05T00:37:54.528Z,20.2
2017-08-05T00:38:15.169Z,20.2
2017-08-05T00:38:35.849Z,20.1
2017-08-05T00:38:56.488Z,20.2
2017-08-05T00:39:17.125Z,20.2
2017-08-05T00:39:37.766Z,20.1
2017-08-05T00:39:58.434Z,20.1
2017-08-05T00:40:19.107Z,20.1
2017-08-05T00:40:39.758Z,20.1
2017-08-05T00:41:00.428Z,20.1
2017-08-05T00:41:21.066Z,20.1
2017-08-05T00:41:41.726Z,20.1
2017-08-05T00:42:03.316Z,20.1
2017-08-05T00:42:23.949Z,20.2
2017-08-05T00:42:44.580Z,20.1
2017-08-05T00:43:05.217Z,20.1
2017-08-05T00:43:25.857Z,20.1
2017-08-05T00:43:46.535Z,20.1
2017-08-05T00:44:07.177Z,20.1
2017-08-05T00:44:27.810Z,20.1
2017-08-05T00:44:48.449Z,20.1
2017-08-05T00:45:09.096Z,20.2
2017-08-05T00:45:29.740Z,20
2017-08-05T00:45:50.397Z,20.1
2017-08-05T00:46:11.036Z,20
2017-08-05T00:46:31.672Z,20
2017-08-05T00:46:52.332Z,20.1
2017-08-05T00:47:12.990Z,20.1
2017-08-05T00:47:33.646Z,20.1
2017-08-05T00:47:54.304Z,19.9
2017-08-05T00:48:14.938Z,20
2017-08-05T00:48:35.601Z,20
2017-08-05T00:48:56.253Z,20
2017-08-05T00:49:16.911Z,20
2017-08-05T00:49:37.535Z,20
2017-08-05T00:49:58.182Z,20
2017-08-05T00:50:18.839Z,20
2017-08-05T00:50:39.473Z,20
2017-08-05T00:51:00.099Z,20
2017-08-05T00:51:20.739Z,20
2017-08-05T00:51:41.407Z,20.1
2017-08-05T00:52:02.061Z,20.1
2017-08-05T00:52:22.701Z,20.1
2017-08-05T00:52:43.354Z,20
2017-08-05T00:53:04.012Z,20
2017-08-05T00:53:24.645Z,20
2017-08-05T00:53:45.296Z,20
2017-08-05T00:54:05.955Z,20.1
2017-08-05T00:54:26.607Z,20
2017-08-05T00:54:47.273Z,19.9
2017-08-05T00:55:07.915Z,20
2017-08-05T00:55:28.602Z,20
2017-08-05T00:55:49.293Z,20.1
2017-08-05T00:56:09.957Z,20
2017-08-05T00:56:30.613Z,20.1
2017-08-05T00:56:51.284Z,20.1
2017-08-05T00:57:11.932Z,20.1
2017-08-05T00:57:32.607Z,20
2017-08-05T00:57:53.299Z,20
2017-08-05T00:58:14.947Z,20
2017-08-05T00:58:35.580Z,20
2017-08-05T00:58:56.244Z,20.1
2017-08-05T00:59:16.897Z,20
2017-08-05T00:59:37.540Z,20
2017-08-05T00:59:58.194Z,20.1
2017-08-05T01:00:18.864Z,20.1
2017-08-05T01:00:39.524Z,20.1
2017-08-05T01:01:00.162Z,20
2017-08-05T01:01:20.819Z,20
2017-08-05T01:01:41.502Z,20.1
2017-08-05T01:02:02.133Z,20.1
2017-08-05T01:02:22.795Z,20
2017-08-05T01:02:43.455Z,20.1
2017-08-05T01:03:04.128Z,20.1
2017-08-05T01:03:24.769Z,20
2017-08-05T01:03:45.462Z,20.1
2017-08-05T01:04:06.137Z,20.1
2017-08-05T01:04:26.786Z,20.1
2017-08-05T01:04:47.432Z,20.1
2017-08-05T01:05:08.088Z,20
2017-08-05T01:05:28.737Z,20.1
2017-08-05T01:05:49.397Z,19.9
2017-08-05T01:06:10.060Z,20
2017-08-05T01:06:30.700Z,19.9
2017-08-05T01:06:51.357Z,19.9
2017-08-05T01:07:12.005Z,20
2017-08-05T01:07:32.662Z,20
2017-08-05T01:07:53.318Z,19.9
2017-08-05T01:08:13.977Z,20
2017-08-05T01:08:34.627Z,19.9
2017-08-05T01:08:55.285Z,19.9
2017-08-05T01:09:15.924Z,19.9
2017-08-05T01:09:36.579Z,20
2017-08-05T01:09:57.227Z,20
2017-08-05T01:10:17.934Z,20
2017-08-05T01:10:38.569Z,20
2017-08-05T01:10:59.198Z,19.9
2017-08-05T01:11:19.863Z,20
2017-08-05T01:11:40.539Z,19.9
2017-08-05T01:12:01.178Z,20
2017-08-05T01:12:21.848Z,19.9
2017-08-05T01:12:42.494Z,19.9
2017-08-05T01:13:03.176Z,19.9
2017-08-05T01:13:23.850Z,19.9
2017-08-05T01:13:44.500Z,19.9
2017-08-05T01:14:05.153Z,19.9
2017-08-05T01:14:25.801Z,19.9
2017-08-05T01:14:46.448Z,19.9
2017-08-05T01:15:07.110Z,20
2017-08-05T01:15:27.740Z,19.9
2017-08-05T01:15:48.379Z,20
2017-08-05T01:16:09.041Z,19.9
2017-08-05T01:16:29.667Z,19.9
2017-08-05T01:16:50.349Z,19.9
2017-08-05T01:17:10.985Z,19.8
2017-08-05T01:17:31.637Z,19.9
2017-08-05T01:17:52.294Z,19.9
2017-08-05T01:18:12.932Z,19.9
2017-08-05T01:18:33.593Z,19.9
2017-08-05T01:18:54.240Z,19.9
2017-08-05T01:19:14.876Z,19.9
2017-08-05T01:19:35.554Z,19.9
2017-08-05T01:19:56.200Z,19.8
2017-08-05T01:20:16.855Z,19.8
2017-08-05T01:20:37.525Z,19.9
2017-08-05T01:20:58.172Z,19.8
2017-08-05T01:21:18.810Z,19.9
2017-08-05T01:21:39.451Z,19.8
2017-08-05T01:22:00.096Z,19.9
2017-08-05T01:22:20.764Z,19.8
2017-08-05T01:22:41.401Z,19.9
2017-08-05T01:23:02.052Z,19.8
2017-08-05T01:23:22.681Z,19.8
2017-08-05T01:23:43.328Z,19.9
2017-08-05T01:24:03.969Z,19.9
2017-08-05T01:24:24.614Z,19.9
2017-08-05T01:24:45.282Z,19.8
2017-08-05T01:25:05.906Z,19.8
2017-08-05T01:25:26.539Z,19.8
2017-08-05T01:25:47.188Z,19.8
2017-08-05T01:26:07.830Z,19.8
2017-08-05T01:26:28.475Z,19.8
2017-08-05T01:26:49.155Z,19.8
2017-08-05T01:27:09.785Z,19.7
2017-08-05T01:27:30.442Z,19.8
2017-08-05T01:27:51.105Z,19.8
2017-08-05T01:28:11.777Z,19.7
2017-08-05T01:28:32.428Z,19.7
2017-08-05T01:28:53.086Z,19.6
2017-08-05T01:29:13.753Z,19.7
2017-08-05T01:29:34.384Z,19.7
2017-08-05T01:29:55.023Z,19.6
2017-08-05T01:30:15.676Z,19.6
2017-08-05T01:30:36.323Z,19.6
2017-08-05T01:30:56.957Z,19.7
2017-08-05T01:31:17.604Z,19.6
2017-08-05T01:31:38.260Z,19.6
2017-08-05T01:31:58.899Z,19.7
2017-08-05T01:32:19.552Z,19.6
2017-08-05T01:32:40.203Z,19.6
2017-08-05T01:33:00.877Z,19.7
2017-08-05T01:33:21.578Z,19.6
2017-08-05T01:33:42.232Z,19.6
2017-08-05T01:34:02.877Z,19.6
2017-08-05T01:34:23.532Z,19.6
2017-08-05T01:34:44.174Z,19.5
2017-08-05T01:35:04.820Z,19.6
2017-08-05T01:35:25.466Z,19.5
2017-08-05T01:35:46.110Z,19.6
2017-08-05T01:36:06.780Z,19.6
2017-08-05T01:36:27.449Z,19.6
2017-08-05T01:36:48.094Z,19.6
2017-08-05T01:37:08.742Z,19.7
2017-08-05T01:37:29.381Z,19.6
2017-08-05T01:37:50.028Z,19.6
2017-08-05T01:38:10.686Z,19.6
2017-08-05T01:38:31.335Z,19.7
2017-08-05T01:38:51.967Z,19.6
2017-08-05T01:39:12.617Z,19.6
2017-08-05T01:39:33.251Z,19.6
2017-08-05T01:39:53.891Z,19.6
2017-08-05T01:40:14.534Z,19.6
2017-08-05T01:40:35.242Z,19.6
2017-08-05T01:40:55.881Z,19.5
2017-08-05T01:41:16.526Z,19.6
2017-08-05T01:41:37.169Z,19.5
2017-08-05T01:41:57.798Z,19.5
2017-08-05T01:42:18.480Z,19.6
2017-08-05T01:42:39.145Z,19.5
2017-08-05T01:42:59.783Z,19.5
2017-08-05T01:43:20.462Z,19.4
2017-08-05T01:43:41.137Z,19.5
2017-08-05T01:44:01.802Z,19.5
2017-08-05T01:44:22.481Z,19.5
2017-08-05T01:44:43.123Z,19.6
2017-08-05T01:45:03.771Z,19.4
2017-08-05T01:45:24.415Z,19.5
2017-08-05T01:45:45.058Z,19.4
2017-08-05T01:46:05.708Z,19.4
2017-08-05T01:46:26.352Z,19.5
2017-08-05T01:46:47.010Z,19.4
2017-08-05T01:47:07.658Z,19.4
2017-08-05T01:47:28.307Z,19.4
2017-08-05T01:47:48.938Z,19.4
2017-08-05T01:48:09.567Z,19.5
2017-08-05T01:48:30.220Z,19.5
2017-08-05T01:48:50.859Z,19.4
2017-08-05T01:49:11.505Z,19.4
2017-08-05T01:49:32.150Z,19.5
2017-08-05T01:49:52.795Z,19.4
2017-08-05T01:50:13.432Z,19.3
2017-08-05T01:50:34.077Z,19.4
2017-08-05T01:50:54.721Z,19.4
2017-08-05T01:51:15.362Z,19.3
2017-08-05T01:51:36.004Z,19.3
2017-08-05T01:51:56.652Z,19.4
2017-08-05T01:52:17.311Z,19.3
2017-08-05T01:52:37.961Z,19.4
2017-08-05T01:52:58.601Z,19.3
2017-08-05T01:53:19.240Z,19.2
2017-08-05T01:53:39.893Z,19.4
2017-08-05T01:54:00.539Z,19.4
2017-08-05T01:54:21.171Z,19.4
2017-08-05T01:54:41.804Z,19.3
2017-08-05T01:55:02.460Z,19.3
2017-08-05T01:55:23.099Z,19.3
2017-08-05T01:55:43.740Z,19.3
2017-08-05T01:56:04.411Z,19.2
2017-08-05T01:56:25.073Z,19.2
2017-08-05T01:56:45.699Z,19.3
2017-08-05T01:57:06.342Z,19.2
2017-08-05T01:57:26.993Z,19.2
2017-08-05T01:57:47.641Z,19.3
2017-08-05T01:58:08.285Z,19.2
2017-08-05T01:58:28.921Z,19.2
2017-08-05T01:58:49.564Z,19.2
2017-08-05T01:59:10.212Z,19.1
2017-08-05T01:59:30.854Z,19.2
2017-08-05T01:59:51.502Z,19.1
2017-08-05T02:00:12.143Z,19.1
2017-08-05T02:00:32.824Z,19.2
2017-08-05T02:00:53.491Z,19.1
2017-08-05T02:01:14.161Z,19.1
2017-08-05T02:01:34.796Z,19
2017-08-05T02:01:55.483Z,19
2017-08-05T02:02:16.116Z,19.1
2017-08-05T02:02:36.754Z,19
2017-08-05T02:02:57.409Z,19.1
2017-08-05T02:03:18.045Z,19.1
2017-08-05T02:03:38.733Z,19.1
2017-08-05T02:03:59.367Z,19
2017-08-05T02:04:20.004Z,19
2017-08-05T02:04:40.656Z,19
2017-08-05T02:05:01.350Z,19
2017-08-05T02:05:21.990Z,19
2017-08-05T02:05:42.635Z,18.9
2017-08-05T02:06:03.275Z,19
2017-08-05T02:06:23.960Z,19
2017-08-05T02:06:44.624Z,19
2017-08-05T02:07:05.258Z,19.1
2017-08-05T02:07:25.905Z,19
2017-08-05T02:07:46.555Z,18.9
2017-08-05T02:08:07.242Z,19
2017-08-05T02:08:27.897Z,18.9
2017-08-05T02:08:48.535Z,18.9
2017-08-05T02:09:09.180Z,19.1
2017-08-05T02:09:29.845Z,19
2017-08-05T02:09:50.505Z,18.9
2017-08-05T02:10:11.165Z,19
2017-08-05T02:10:31.850Z,18.9
2017-08-05T02:10:52.505Z,19
2017-08-05T02:11:13.186Z,18.9
2017-08-05T02:11:33.876Z,19
2017-08-05T02:11:54.547Z,18.9
2017-08-05T02:12:15.192Z,18.9
2017-08-05T02:12:35.842Z,18.9
2017-08-05T02:12:56.498Z,18.9
2017-08-05T02:13:17.154Z,18.9
2017-08-05T02:13:37.812Z,18.9
2017-08-05T02:13:58.448Z,18.9
2017-08-05T02:14:19.088Z,18.8
2017-08-05T02:14:39.731Z,18.9
2017-08-05T02:15:00.419Z,18.9
2017-08-05T02:15:21.086Z,18.9
2017-08-05T02:15:41.739Z,18.9
2017-08-05T02:16:02.389Z,18.9
2017-08-05T02:16:23.038Z,18.8
2017-08-05T02:16:43.742Z,18.9
2017-08-05T02:17:04.388Z,18.9
2017-08-05T02:17:25.028Z,18.9
2017-08-05T02:17:45.662Z,18.8
2017-08-05T02:18:06.330Z,18.8
2017-08-05T02:18:26.964Z,18.8
2017-08-05T02:18:47.608Z,18.8
2017-08-05T02:19:08.260Z,18.7
2017-08-05T02:19:28.909Z,18.7
2017-08-05T02:19:49.594Z,18.7
2017-08-05T02:20:10.266Z,18.7
2017-08-05T02:20:30.909Z,18.7
2017-08-05T02:20:51.544Z,18.7
2017-08-05T02:21:12.195Z,18.7
2017-08-05T02:21:32.890Z,18.7
2017-08-05T02:21:53.539Z,18.7
2017-08-05T02:22:14.199Z,18.7
2017-08-05T02:22:34.825Z,18.7
2017-08-05T02:22:55.469Z,18.8
2017-08-05T02:23:16.112Z,18.6
2017-08-05T02:23:36.759Z,18.7
2017-08-05T02:23:57.413Z,18.6
2017-08-05T02:24:18.060Z,18.6
2017-08-05T02:24:38.718Z,18.6
2017-08-05T02:24:59.358Z,18.5
2017-08-05T02:25:19.987Z,18.6
2017-08-05T02:25:40.622Z,18.6
2017-08-05T02:26:01.290Z,18.6
2017-08-05T02:26:21.941Z,18.6
2017-08-05T02:26:42.620Z,18.6
2017-08-05T02:27:03.263Z,18.6
2017-08-05T02:27:23.923Z,18.6
2017-08-05T02:27:44.583Z,18.6
2017-08-05T02:28:05.245Z,18.6
2017-08-05T02:28:25.885Z,18.6
2017-08-05T02:28:46.541Z,18.6
2017-08-05T02:29:07.177Z,18.6
2017-08-05T02:29:27.833Z,18.5
2017-08-05T02:29:48.472Z,18.6
2017-08-05T02:30:09.142Z,18.5
2017-08-05T02:30:29.797Z,18.6
2017-08-05T02:30:50.503Z,18.6
2017-08-05T02:31:11.149Z,18.5
2017-08-05T02:31:31.817Z,18.6
2017-08-05T02:31:52.484Z,18.5
2017-08-05T02:32:13.184Z,18.5
2017-08-05T02:32:33.848Z,18.5
2017-08-05T02:32:54.510Z,18.6
2017-08-05T02:33:15.160Z,18.5
2017-08-05T02:33:35.792Z,18.5
2017-08-05T02:33:56.443Z,18.5
2017-08-05T02:34:17.121Z,18.5
2017-08-05T02:34:37.753Z,18.5
2017-08-05T02:34:58.393Z,18.5
2017-08-05T02:35:19.029Z,18.5
2017-08-05T02:35:39.668Z,18.4
2017-08-05T02:36:00.322Z,18.5
2017-08-05T02:36:20.970Z,18.6
2017-08-05T02:36:41.617Z,18.5
2017-08-05T02:37:02.251Z,18.5
2017-08-05T02:37:22.892Z,18.4
2017-08-05T02:37:43.544Z,18.4
2017-08-05T02:38:04.219Z,18.4
2017-08-05T02:38:24.889Z,18.4
2017-08-05T02:38:45.535Z,18.4
2017-08-05T02:39:06.181Z,18.3
2017-08-05T02:39:26.824Z,18.3
2017-08-05T02:39:47.496Z,18.4
2017-08-05T02:40:08.132Z,18.4
2017-08-05T02:40:28.800Z,18.4
2017-08-05T02:40:49.455Z,18.3
2017-08-05T02:41:10.112Z,18.4
2017-08-05T02:41:30.749Z,18.3
2017-08-05T02:41:51.386Z,18.3
2017-08-05T02:42:12.029Z,18.4
2017-08-05T02:42:32.681Z,18.4
2017-08-05T02:42:53.325Z,18.2
2017-08-05T02:43:13.975Z,18.4
2017-08-05T02:43:34.646Z,18.2
2017-08-05T02:43:55.305Z,18.4
2017-08-05T02:44:15.949Z,18.3
2017-08-05T02:44:36.612Z,18.2
2017-08-05T02:44:57.276Z,18.2
2017-08-05T02:45:17.950Z,18.4
2017-08-05T02:45:38.594Z,18.4
2017-08-05T02:45:59.226Z,18.1
2017-08-05T02:46:19.873Z,18.4
2017-08-05T02:46:40.544Z,18.2
2017-08-05T02:47:01.183Z,18.3
2017-08-05T02:47:21.871Z,18.2
2017-08-05T02:47:42.542Z,18.2
2017-08-05T02:48:03.197Z,18.3
2017-08-05T02:48:23.839Z,18.2
2017-08-05T02:48:44.484Z,18.2
2017-08-05T02:49:05.164Z,18.2
2017-08-05T02:49:25.840Z,18.2
2017-08-05T02:49:46.501Z,18.2
2017-08-05T02:50:07.174Z,18.2
2017-08-05T02:50:27.862Z,18.2
2017-08-05T02:50:48.537Z,18.2
2017-08-05T02:51:09.188Z,18.2
2017-08-05T02:51:29.843Z,18.2
2017-08-05T02:51:50.502Z,18.2
2017-08-05T02:52:11.149Z,18.2
2017-08-05T02:52:31.791Z,18.3
2017-08-05T02:52:52.446Z,18.1
2017-08-05T02:53:13.104Z,18.1
2017-08-05T02:53:33.728Z,18.2
2017-08-05T02:53:54.376Z,18.2
2017-08-05T02:54:15.014Z,18.2
2017-08-05T02:54:35.667Z,18.1
2017-08-05T02:54:56.325Z,18.1
2017-08-05T02:55:16.972Z,18.1
2017-08-05T02:55:37.615Z,18.1
2017-08-05T02:55:58.291Z,18.1
2017-08-05T02:56:18.923Z,18.1
2017-08-05T02:56:39.577Z,18.1
2017-08-05T02:57:00.238Z,18.1
2017-08-05T02:57:20.897Z,18.2
2017-08-05T02:57:41.573Z,18.1
2017-08-05T02:58:02.278Z,18.1
2017-08-05T02:58:22.915Z,18.1
2017-08-05T02:58:43.553Z,18.1
2017-08-05T02:59:04.220Z,18.1
2017-08-05T02:59:24.842Z,18.1
2017-08-05T02:59:45.503Z,18.1
2017-08-05T03:00:06.143Z,18
2017-08-05T03:00:26.796Z,18
2017-08-05T03:00:47.436Z,18
2017-08-05T03:01:08.087Z,18.1
2017-08-05T03:01:28.723Z,18
2017-08-05T03:01:49.380Z,18
2017-08-05T03:02:10.015Z,18
2017-08-05T03:02:30.657Z,17.9
2017-08-05T03:02:51.301Z,18
2017-08-05T03:03:11.956Z,18
2017-08-05T03:03:32.630Z,17.9
2017-08-05T03:03:53.319Z,17.9
2017-08-05T03:04:13.954Z,18
2017-08-05T03:04:34.592Z,17.9
2017-08-05T03:04:55.250Z,17.9
2017-08-05T03:05:15.910Z,17.9
2017-08-05T03:05:36.574Z,17.9
2017-08-05T03:05:57.252Z,18
2017-08-05T03:06:17.892Z,17.9
2017-08-05T03:06:38.565Z,17.9
2017-08-05T03:06:59.215Z,17.9
2017-08-05T03:07:19.849Z,17.8
2017-08-05T03:07:40.489Z,17.9
2017-08-05T03:08:01.143Z,17.9
2017-08-05T03:08:21.787Z,17.9
2017-08-05T03:08:42.459Z,17.8
2017-08-05T03:09:03.093Z,17.8
2017-08-05T03:09:23.726Z,17.8
2017-08-05T03:09:44.373Z,17.8
2017-08-05T03:10:05.016Z,17.9
2017-08-05T03:10:25.653Z,17.8
2017-08-05T03:10:46.286Z,17.8
2017-08-05T03:11:06.940Z,17.8
2017-08-05T03:11:27.602Z,17.8
2017-08-05T03:11:48.239Z,17.9
2017-08-05T03:12:08.929Z,17.8
2017-08-05T03:12:29.565Z,17.8
2017-08-05T03:12:50.200Z,17.8
2017-08-05T03:13:10.839Z,17.8
2017-08-05T03:13:31.504Z,17.8
2017-08-05T03:13:52.152Z,17.8
2017-08-05T03:14:12.804Z,17.8
2017-08-05T03:14:33.479Z,17.8
2017-08-05T03:14:54.145Z,17.8
2017-08-05T03:15:14.783Z,17.8
2017-08-05T03:15:35.443Z,17.8
2017-08-05T03:15:56.093Z,17.8
2017-08-05T03:16:16.729Z,17.8
2017-08-05T03:16:37.375Z,17.9
2017-08-05T03:16:58.022Z,17.8
2017-08-05T03:17:18.680Z,17.8
2017-08-05T03:17:39.333Z,17.8
2017-08-05T03:17:59.988Z,17.8
2017-08-05T03:18:20.627Z,17.8
2017-08-05T03:18:41.265Z,17.8
2017-08-05T03:19:01.962Z,17.7
2017-08-05T03:19:22.616Z,17.8
2017-08-05T03:19:43.256Z,17.8
2017-08-05T03:20:03.929Z,17.7
2017-08-05T03:20:24.591Z,17.8
2017-08-05T03:20:45.264Z,17.8
2017-08-05T03:21:05.924Z,17.8
2017-08-05T03:21:26.602Z,17.8
2017-08-05T03:21:47.239Z,17.8
2017-08-05T03:22:07.887Z,17.8
2017-08-05T03:22:28.541Z,17.8
2017-08-05T03:22:49.185Z,17.8
2017-08-05T03:23:09.837Z,17.8
2017-08-05T03:23:30.517Z,17.8
2017-08-05T03:23:51.158Z,17.8
2017-08-05T03:24:11.798Z,17.8
2017-08-05T03:24:32.461Z,17.8
2017-08-05T03:24:53.094Z,17.8
2017-08-05T03:25:13.745Z,17.8
2017-08-05T03:25:34.374Z,17.8
2017-08-05T03:25:55.031Z,17.8
2017-08-05T03:26:15.689Z,17.8
2017-08-05T03:26:36.384Z,17.8
2017-08-05T03:26:57.033Z,17.8
2017-08-05T03:27:17.686Z,17.8
2017-08-05T03:27:38.331Z,17.8
2017-08-05T03:27:58.970Z,17.7
2017-08-05T03:28:19.605Z,17.7
2017-08-05T03:28:40.264Z,17.8
2017-08-05T03:29:00.947Z,17.8
2017-08-05T03:29:21.590Z,17.8
2017-08-05T03:29:42.245Z,17.8
2017-08-05T03:30:02.887Z,17.8
2017-08-05T03:30:23.540Z,17.8
2017-08-05T03:30:44.212Z,17.8
2017-08-05T03:31:04.872Z,17.9
2017-08-05T03:31:25.530Z,17.8
2017-08-05T03:31:46.170Z,17.8
2017-08-05T03:32:06.803Z,17.8
2017-08-05T03:32:27.433Z,17.8
2017-08-05T03:32:48.076Z,17.7
2017-08-05T03:33:08.745Z,17.8
2017-08-05T03:33:29.421Z,17.8
2017-08-05T03:33:50.096Z,17.8
2017-08-05T03:34:10.764Z,17.7
2017-08-05T03:34:31.419Z,17.7
2017-08-05T03:34:52.054Z,17.7
2017-08-05T03:35:12.692Z,17.7
2017-08-05T03:35:33.346Z,17.7
2017-08-05T03:35:53.993Z,17.7
2017-08-05T03:36:14.637Z,17.7
2017-08-05T03:36:35.275Z,17.7
2017-08-05T03:36:55.937Z,17.8
2017-08-05T03:37:16.573Z,17.8
2017-08-05T03:37:37.211Z,17.8
2017-08-05T03:37:57.882Z,17.7
2017-08-05T03:38:18.524Z,17.8
2017-08-05T03:38:39.188Z,17.8
2017-08-05T03:38:59.839Z,17.8
2017-08-05T03:39:20.475Z,17.7
2017-08-05T03:39:41.115Z,17.8
2017-08-05T03:40:01.784Z,17.7
2017-08-05T03:40:22.439Z,17.8
2017-08-05T03:40:43.081Z,17.8
2017-08-05T03:41:03.742Z,17.7
2017-08-05T03:41:24.373Z,17.8
2017-08-05T03:41:45.034Z,17.7
2017-08-05T03:42:05.689Z,17.8
2017-08-05T03:42:26.353Z,17.8
2017-08-05T03:42:47.005Z,17.8
2017-08-05T03:43:07.654Z,17.8
2017-08-05T03:43:28.301Z,17.8
2017-08-05T03:43:48.952Z,17.8
2017-08-05T03:44:09.605Z,17.8
2017-08-05T03:44:30.232Z,17.8
2017-08-05T03:44:50.874Z,17.8
2017-08-05T03:45:11.520Z,17.7
2017-08-05T03:45:32.175Z,17.8
2017-08-05T03:45:52.837Z,17.8
2017-08-05T03:46:13.488Z,17.8
2017-08-05T03:46:34.137Z,17.9
2017-08-05T03:46:54.780Z,17.8
2017-08-05T03:47:15.457Z,17.9
2017-08-05T03:47:36.099Z,17.9
2017-08-05T03:47:56.745Z,17.9
2017-08-05T03:48:17.397Z,17.9
2017-08-05T03:48:38.042Z,17.9
2017-08-05T03:48:58.709Z,17.9
2017-08-05T03:49:19.351Z,17.9
2017-08-05T03:49:39.998Z,17.9
2017-08-05T03:50:00.655Z,18
2017-08-05T03:50:21.289Z,18
2017-08-05T03:50:41.932Z,18
2017-08-05T03:51:02.576Z,18.1
2017-08-05T03:51:23.260Z,18.1
2017-08-05T03:51:43.901Z,18.1
2017-08-05T03:52:04.544Z,18.1
2017-08-05T03:52:25.199Z,18.1
2017-08-05T03:52:45.854Z,18.1
2017-08-05T03:53:06.506Z,18.2
2017-08-05T03:53:27.150Z,18.2
2017-08-05T03:53:47.834Z,18.2
2017-08-05T03:54:08.482Z,18.2
2017-08-05T03:54:29.120Z,18.2
2017-08-05T03:54:49.753Z,18.2
2017-08-05T03:55:10.388Z,18.2
2017-08-05T03:55:31.056Z,18.2
2017-08-05T03:55:51.726Z,18.2
2017-08-05T03:56:12.383Z,18.2
2017-08-05T03:56:33.030Z,18.2
2017-08-05T03:56:53.672Z,18.2
2017-08-05T03:57:14.328Z,18.2
2017-08-05T03:57:34.989Z,18.2
2017-08-05T03:57:55.645Z,18.2
2017-08-05T03:58:16.298Z,18.2
2017-08-05T03:58:36.949Z,18.2
2017-08-05T03:58:57.620Z,18.2
2017-08-05T03:59:18.293Z,18.2
2017-08-05T03:59:38.941Z,18.2
2017-08-05T03:59:59.631Z,18.2
2017-08-05T04:00:20.324Z,18.2
2017-08-05T04:00:40.968Z,18.3
2017-08-05T04:01:01.619Z,18.2
2017-08-05T04:01:22.261Z,18.2
2017-08-05T04:01:42.939Z,18.2
2017-08-05T04:02:03.583Z,18.2
2017-08-05T04:02:24.260Z,18.2
2017-08-05T04:02:44.915Z,18.3
2017-08-05T04:03:05.561Z,18.2
2017-08-05T04:03:26.228Z,18.2
2017-08-05T04:03:46.897Z,18.2
2017-08-05T04:04:07.544Z,18.2
2017-08-05T04:04:28.201Z,18.2
2017-08-05T04:04:48.861Z,18.2
2017-08-05T04:05:09.503Z,18.1
2017-08-05T04:05:30.130Z,18.2
2017-08-05T04:05:50.795Z,18.1
2017-08-05T04:06:11.429Z,18.2
2017-08-05T04:06:32.077Z,18.2
2017-08-05T04:07:03.593Z,18.1
2017-08-05T04:07:24.234Z,18.1
2017-08-05T04:07:44.870Z,18.1
2017-08-05T04:08:05.532Z,18.1
2017-08-05T04:08:26.185Z,18.1
2017-08-05T04:08:46.849Z,18.1
2017-08-05T04:09:07.513Z,18.1
2017-08-05T04:09:28.162Z,18
2017-08-05T04:09:48.801Z,18
2017-08-05T04:10:09.459Z,18.1
2017-08-05T04:10:30.099Z,18.1
2017-08-05T04:10:50.742Z,18.1
2017-08-05T04:11:11.385Z,18.1
2017-08-05T04:11:32.013Z,18
2017-08-05T04:11:52.662Z,18.1
2017-08-05T04:12:13.323Z,18.1
2017-08-05T04:12:33.963Z,18
2017-08-05T04:12:54.619Z,18
2017-08-05T04:13:15.272Z,18
2017-08-05T04:13:35.937Z,18.1
2017-08-05T04:13:56.605Z,18.1
2017-08-05T04:14:17.265Z,18.1
2017-08-05T04:14:37.913Z,18.1
2017-08-05T04:14:58.581Z,18.1
2017-08-05T04:15:19.257Z,18.1
2017-08-05T04:15:39.906Z,18.1
2017-08-05T04:16:00.545Z,18.1
2017-08-05T04:16:21.183Z,18.2
2017-08-05T04:16:41.814Z,18.1
2017-08-05T04:17:02.500Z,18.1
2017-08-05T04:17:23.137Z,18.1
2017-08-05T04:17:43.791Z,18.1
2017-08-05T04:18:04.444Z,18.1
2017-08-05T04:18:25.076Z,18.1
2017-08-05T04:18:45.720Z,18
2017-08-05T04:19:06.361Z,18
2017-08-05T04:19:27.014Z,18.1
2017-08-05T04:19:47.664Z,18.1
2017-08-05T04:20:08.317Z,18.1
2017-08-05T04:20:28.958Z,18.1
2017-08-05T04:20:49.606Z,18.1
2017-08-05T04:21:10.261Z,18.1
2017-08-05T04:21:30.906Z,18.1
2017-08-05T04:21:51.539Z,18.1
2017-08-05T04:22:12.190Z,18.1
2017-08-05T04:22:32.835Z,18.1
2017-08-05T04:22:53.491Z,18.2
2017-08-05T04:23:14.122Z,18.2
2017-08-05T04:23:34.778Z,18.2
2017-08-05T04:23:55.427Z,18.2
2017-08-05T04:24:16.083Z,18.2
2017-08-05T04:24:36.736Z,18.2
2017-08-05T04:24:57.395Z,18.2
2017-08-05T04:25:18.037Z,18.2
2017-08-05T04:25:38.682Z,18.2
2017-08-05T04:25:59.334Z,18.2
2017-08-05T04:26:19.982Z,18.2
2017-08-05T04:26:40.637Z,18.2
2017-08-05T04:27:01.297Z,18.2
2017-08-05T04:27:21.978Z,18.2
2017-08-05T04:27:42.633Z,18.2
2017-08-05T04:28:03.277Z,18.2
2017-08-05T04:28:23.915Z,18.2
2017-08-05T04:28:44.572Z,18.2
2017-08-05T04:29:05.213Z,18.2
2017-08-05T04:29:25.860Z,18.2
2017-08-05T04:29:46.500Z,18.2
2017-08-05T04:30:07.167Z,18.2
2017-08-05T04:30:27.832Z,18.2
2017-08-05T04:30:48.485Z,18.2
2017-08-05T04:31:09.150Z,18.2
2017-08-05T04:31:29.804Z,18.2
2017-08-05T04:31:50.451Z,18.1
2017-08-05T04:32:11.106Z,18.2
2017-08-05T04:32:31.746Z,18.3
2017-08-05T04:32:52.388Z,18.3
2017-08-05T04:33:13.037Z,18.3
2017-08-05T04:33:33.671Z,18.2
2017-08-05T04:33:54.328Z,18.1
2017-08-05T04:34:14.993Z,18.2
2017-08-05T04:34:35.646Z,18.2
2017-08-05T04:34:56.317Z,18.3
2017-08-05T04:35:16.977Z,18.3
2017-08-05T04:35:37.641Z,18.2
2017-08-05T04:35:58.282Z,18.2
2017-08-05T04:36:18.928Z,18.3
2017-08-05T04:36:39.592Z,18.1